Terminal Aerodrome Forecast
Issued by NWS

Home | Current Version | Previous Version | Text Only | Print | Product List | Glossary On
Versions: 1 2 3 4 5 6 7 8 9 10 11 12 13 14 15 16
000
FTUS41 KPBZ 301100
TAFZZV
TAF
KZZV 301138Z 3012/0112 00000KT 5SM BR SKC
      TEMPO 3012/3013 2SM BR SCT002
     FM301300 23004KT P6SM SCT100
     FM301600 27006KT P6SM -SHRA BKN050
     FM302100 33005KT P6SM BKN040=

USA.gov is the U.S. government's official web portal to all federal, state and local government web resources and services.